New York, NY (10027)

5:20 PM EDT on July 30, 2016 (GMT -0400)
Upper West Side | | Change Station

Elev 154 ft 40.79 °N, 73.97 °W | Updated 20 minutes ago

Light Rain
Light Rain Mist
73.9 °F
Feels Like 71 °F
N
8.0
Wind Variable Wind from SSE
Gusts 8.0 mph

Today
High -- | Low -- °F
--% Chance of Precip.
Yesterday
High -- | Low -- °F
Precip. -- in
Pressure 30.04 in
Visibility 1.8 miles
Clouds Mostly Cloudy 2500 ft
Mostly Cloudy 5000 ft
Overcast 11000 ft
Heat Index 71 °F
Dew Point 72 °F
Humidity 93%
Rainfall 0.09 in
Snow Depth Not available.
5:50 AM 8:13 PM
Waning Crescent, 11% visible
SPECI KNYC 302110Z AUTO VRB04KT 1 3/4SM -RA BR BKN025 BKN050 OVC110 23/22 A3004 RMK AO2 P0000 T02330222 $
Pressure 30.04 in
Visibility 1.8 miles
Clouds Mostly Cloudy 2500 ft
Mostly Cloudy 5000 ft
Overcast 11000 ft
Heat Index 71 °F
Dew Point 72 °F
Humidity 93%
Rainfall 0.09 in
Snow Depth Not available.
5:50 AM 8:13 PM
Waning Crescent, 11% visible
SPECI KNYC 302110Z AUTO VRB04KT 1 3/4SM -RA BR BKN025 BKN050 OVC110 23/22 A3004 RMK AO2 P0000 T02330222 $

10-Day Weather Forecast

Almanac

Astronomy

Jul. 30, 2016 Rise Set
Actual Time
Civil Twilight
Nautical Twilight
Astronomical Twilight
Moon
Length of Visible Light
Length of Day
Tomorrow will be .
, % of the Moon is Illuminated

Today's Extremes

State Highs State Lows

Community

WunderPhotos

Upload Photos

1,928,645 photos uploaded!

WunderBlog® & News

Nearby

Air Quality

  Air Quality AQ Index Pollutant
Not available.

Snow Depth

Station Depth Elevation

Earthquake Activity

City Distance Mag. Time & Date
Minimum magnitude displayed is 2.5.

Coastal Water Temperatures

Place Temperature

Stations

Nearby Weather Stations

Station Location Temp. Windchill Dew Point Humidity Wind Precip. Elev Updated Type
                   

Watches & Warnings

There are currently no watches in effect.